createdAt,value
2022-10-08T00:00:00.526Z,0.045
2022-10-08T00:01:00.377Z,0.045
2022-10-08T00:02:00.462Z,0.045
2022-10-08T00:03:00.564Z,0.045
2022-10-08T00:04:00.579Z,0.045
2022-10-08T00:05:00.644Z,0.045
2022-10-08T00:06:00.382Z,0.045
2022-10-08T00:07:00.521Z,0.045
2022-10-08T00:08:00.314Z,0.045
2022-10-08T00:09:00.308Z,0.045
2022-10-08T00:10:00.313Z,0.045
2022-10-08T00:11:00.570Z,0.045
2022-10-08T00:12:00.439Z,0.045
2022-10-08T00:13:00.414Z,0.045
2022-10-08T00:14:00.430Z,0.045
2022-10-08T00:15:00.479Z,0.045
2022-10-08T00:16:00.441Z,0.045
2022-10-08T00:17:00.739Z,0.045
2022-10-08T00:18:00.492Z,0.045
2022-10-08T00:19:00.384Z,0.045
2022-10-08T00:20:00.298Z,0.045
2022-10-08T00:21:00.327Z,0.045
2022-10-08T00:22:00.323Z,0.045
2022-10-08T00:23:00.529Z,0.045
2022-10-08T00:24:00.365Z,0.045
2022-10-08T00:25:00.311Z,0.045
2022-10-08T00:26:00.319Z,0.045
2022-10-08T00:27:00.347Z,0.045
2022-10-08T00:28:00.351Z,0.045
2022-10-08T00:29:00.562Z,0.045
2022-10-08T00:30:00.343Z,0.045
2022-10-08T00:31:00.499Z,0.045
2022-10-08T00:32:00.423Z,0.045
2022-10-08T00:33:00.483Z,0.045
2022-10-08T00:34:00.289Z,0.045
2022-10-08T00:35:00.523Z,0.045
2022-10-08T00:36:00.360Z,0.045
2022-10-08T00:37:00.383Z,0.045
2022-10-08T00:38:00.335Z,0.045
2022-10-08T00:39:00.294Z,0.045
2022-10-08T00:40:00.295Z,0.045
2022-10-08T00:41:00.469Z,0.045
2022-10-08T00:42:00.319Z,0.045
2022-10-08T00:43:00.359Z,0.045
2022-10-08T00:44:00.303Z,0.045
2022-10-08T00:45:00.334Z,0.045
2022-10-08T00:46:00.398Z,0.045
2022-10-08T00:47:00.457Z,0.045
2022-10-08T00:48:00.522Z,0.045
2022-10-08T00:49:00.589Z,0.045
2022-10-08T00:50:00.719Z,0.045
2022-10-08T00:51:00.283Z,0.045
2022-10-08T00:52:00.311Z,0.045
2022-10-08T00:53:00.462Z,0.045
2022-10-08T00:54:00.285Z,0.045
2022-10-08T00:55:00.294Z,0.045
2022-10-08T00:56:00.312Z,0.045
2022-10-08T00:57:00.297Z,0.045
2022-10-08T00:58:00.285Z,0.045
2022-10-08T00:59:00.430Z,0.045
2022-10-08T01:00:00.295Z,0.045
2022-10-08T01:01:00.396Z,0.045
2022-10-08T01:02:00.349Z,0.045
2022-10-08T01:03:00.313Z,0.045
2022-10-08T01:04:00.457Z,0.045
2022-10-08T01:05:00.434Z,0.045
2022-10-08T01:06:00.300Z,0.045
2022-10-08T01:07:00.343Z,0.045
2022-10-08T01:08:00.343Z,0.045
2022-10-08T01:09:00.347Z,0.045
2022-10-08T01:10:00.329Z,0.045
2022-10-08T01:11:00.460Z,0.045
2022-10-08T01:12:00.360Z,0.045
2022-10-08T01:13:00.302Z,0.045
2022-10-08T01:14:00.276Z,0.045
2022-10-08T01:15:00.304Z,0.045
2022-10-08T01:16:00.397Z,0.045
2022-10-08T01:17:00.518Z,0.045
2022-10-08T01:18:00.329Z,0.045
2022-10-08T01:19:00.297Z,0.045
2022-10-08T01:20:00.500Z,0.045
2022-10-08T01:21:00.314Z,0.045
2022-10-08T01:22:00.287Z,0.045
2022-10-08T01:23:00.490Z,0.045
2022-10-08T01:24:00.295Z,0.045
2022-10-08T01:25:00.288Z,0.045
2022-10-08T01:26:00.285Z,0.045
2022-10-08T01:27:00.299Z,0.045
2022-10-08T01:28:00.372Z,0.045
2022-10-08T01:29:00.465Z,0.045
2022-10-08T01:30:00.308Z,0.045
2022-10-08T01:31:00.302Z,0.045
2022-10-08T01:32:00.364Z,0.045
2022-10-08T01:33:00.322Z,0.045
2022-10-08T01:34:00.351Z,0.045
2022-10-08T01:35:00.532Z,0.045
2022-10-08T01:36:00.316Z,0.045
2022-10-08T01:37:00.293Z,0.045
2022-10-08T01:38:00.302Z,0.045
2022-10-08T01:39:00.289Z,0.045
2022-10-08T01:40:00.284Z,0.045
2022-10-08T01:41:00.459Z,0.045
2022-10-08T01:42:00.291Z,0.045
2022-10-08T01:43:00.311Z,0.045
2022-10-08T01:44:00.299Z,0.045
2022-10-08T01:45:00.315Z,0.045
2022-10-08T01:46:00.393Z,0.045
2022-10-08T01:47:00.450Z,0.045
2022-10-08T01:48:00.338Z,0.045
2022-10-08T01:49:00.502Z,0.045
2022-10-08T01:50:00.500Z,0.045
2022-10-08T01:51:00.302Z,0.045
2022-10-08T01:52:00.377Z,0.045
2022-10-08T01:53:00.501Z,0.045
2022-10-08T01:54:00.345Z,0.045
2022-10-08T01:55:00.327Z,0.045
2022-10-08T01:56:00.316Z,0.045
2022-10-08T01:57:00.300Z,0.045
2022-10-08T01:58:00.294Z,0.045
2022-10-08T01:59:00.432Z,0.045
2022-10-08T02:00:00.333Z,0.045
2022-10-08T02:01:00.347Z,0.045
2022-10-08T02:02:00.471Z,0.045
2022-10-08T02:03:00.331Z,0.045
2022-10-08T02:04:00.345Z,0.045
2022-10-08T02:05:00.427Z,0.045
2022-10-08T02:06:00.294Z,0.045
2022-10-08T02:07:00.322Z,0.045
2022-10-08T02:08:00.281Z,0.045
2022-10-08T02:09:00.295Z,0.045
2022-10-08T02:10:00.279Z,0.045
2022-10-08T02:11:00.564Z,0.045
2022-10-08T02:12:00.302Z,0.045
2022-10-08T02:13:00.292Z,0.045
2022-10-08T02:14:00.301Z,0.045
2022-10-08T02:15:00.349Z,0.045
2022-10-08T02:16:00.290Z,0.045
2022-10-08T02:17:00.405Z,0.045
2022-10-08T02:18:00.294Z,0.045
2022-10-08T02:19:00.307Z,0.045
2022-10-08T02:20:00.443Z,0.045
2022-10-08T02:21:00.306Z,0.045
2022-10-08T02:22:00.286Z,0.045
2022-10-08T02:23:00.396Z,0.045
2022-10-08T02:24:00.300Z,0.045
2022-10-08T02:25:00.292Z,0.045
2022-10-08T02:26:00.309Z,0.045
2022-10-08T02:27:00.301Z,0.045
2022-10-08T02:28:00.316Z,0.045
2022-10-08T02:29:00.410Z,0.045
2022-10-08T02:30:00.297Z,0.090
2022-10-08T02:31:00.290Z,0.090
2022-10-08T02:32:00.393Z,0.135
2022-10-08T02:33:00.313Z,0.135
2022-10-08T02:34:00.309Z,0.180
2022-10-08T02:35:00.428Z,0.180
2022-10-08T02:36:00.300Z,0.180
2022-10-08T02:37:00.304Z,0.270
2022-10-08T02:38:00.299Z,0.315
2022-10-08T02:39:00.291Z,0.405
2022-10-08T02:40:00.302Z,0.450
2022-10-08T02:41:00.477Z,0.540
2022-10-08T02:42:00.376Z,0.720
2022-10-08T02:43:00.293Z,0.945
2022-10-08T02:44:00.349Z,1.170
2022-10-08T02:45:00.362Z,1.395
2022-10-08T02:46:00.401Z,1.800
2022-10-08T02:47:00.496Z,2.250
2022-10-08T02:48:00.358Z,2.790
2022-10-08T02:49:00.318Z,3.465
2022-10-08T02:50:00.481Z,4.230
2022-10-08T02:51:00.386Z,5.130
2022-10-08T02:52:00.347Z,6.255
2022-10-08T02:53:00.419Z,7.335
2022-10-08T02:54:00.295Z,9.045
2022-10-08T02:55:00.294Z,10.485
2022-10-08T02:56:00.299Z,11.970
2022-10-08T02:57:00.307Z,14.400
2022-10-08T02:58:00.310Z,16.560
2022-10-08T02:59:00.502Z,18.270
2022-10-08T03:00:00.312Z,21.870
2022-10-08T03:01:00.347Z,24.840
2022-10-08T03:02:00.385Z,28.260
2022-10-08T03:03:00.323Z,31.680
2022-10-08T03:04:00.297Z,34.200
2022-10-08T03:05:00.433Z,40.320
2022-10-08T03:06:00.368Z,45.000
2022-10-08T03:07:00.310Z,49.320
2022-10-08T03:08:00.278Z,57.240
2022-10-08T03:09:00.312Z,60.480
2022-10-08T03:10:00.284Z,70.200
2022-10-08T03:11:00.439Z,74.880
2022-10-08T03:12:00.309Z,83.160
2022-10-08T03:13:00.296Z,89.280
2022-10-08T03:14:00.305Z,99.360
2022-10-08T03:15:00.280Z,107.280
2022-10-08T03:16:00.299Z,117.360
2022-10-08T03:17:00.524Z,131.040
2022-10-08T03:18:00.339Z,133.920
2022-10-08T03:19:00.301Z,145.440
2022-10-08T03:20:00.463Z,162.720
2022-10-08T03:21:00.294Z,167.760
2022-10-08T03:22:00.319Z,183.600
2022-10-08T03:23:00.414Z,198.720
2022-10-08T03:24:00.305Z,214.560
2022-10-08T03:25:00.309Z,221.760
2022-10-08T03:26:00.308Z,241.920
2022-10-08T03:27:00.311Z,252.000
2022-10-08T03:28:00.365Z,264.960
2022-10-08T03:29:00.426Z,275.040
2022-10-08T03:30:00.320Z,296.640
2022-10-08T03:31:00.305Z,312.480
2022-10-08T03:32:00.373Z,325.440
2022-10-08T03:33:00.381Z,342.720
2022-10-08T03:34:00.330Z,364.320
2022-10-08T03:35:00.458Z,371.520
2022-10-08T03:36:00.361Z,394.560
2022-10-08T03:37:00.364Z,391.680
2022-10-08T03:38:00.401Z,420.480
2022-10-08T03:39:00.375Z,452.160
2022-10-08T03:40:00.369Z,452.160
2022-10-08T03:41:00.408Z,469.440
2022-10-08T03:42:00.280Z,495.360
2022-10-08T03:43:00.371Z,506.880
2022-10-08T03:44:00.316Z,515.520
2022-10-08T03:45:00.291Z,529.920
2022-10-08T03:46:00.363Z,541.440
2022-10-08T03:47:00.528Z,570.240
2022-10-08T03:48:00.306Z,590.400
2022-10-08T03:49:00.281Z,607.680
2022-10-08T03:50:00.526Z,604.800
2022-10-08T03:51:00.370Z,630.720
2022-10-08T03:52:00.302Z,645.120
2022-10-08T03:53:00.424Z,665.280
2022-10-08T03:54:00.301Z,671.040
2022-10-08T03:55:00.423Z,699.840
2022-10-08T03:56:00.287Z,725.760
2022-10-08T03:57:00.309Z,734.400
2022-10-08T03:58:00.292Z,754.560
2022-10-08T03:59:00.455Z,777.600
2022-10-08T04:00:00.307Z,800.640
2022-10-08T04:01:00.403Z,812.160
2022-10-08T04:02:00.299Z,852.480
2022-10-08T04:03:00.359Z,852.480
2022-10-08T04:04:00.307Z,904.320
2022-10-08T04:05:00.420Z,910.080
2022-10-08T04:06:00.355Z,944.640
2022-10-08T04:07:00.298Z,1008.000
2022-10-08T04:08:00.288Z,1059.840
2022-10-08T04:09:00.290Z,1094.400
2022-10-08T04:10:00.301Z,1054.080
2022-10-08T04:11:00.424Z,1002.240
2022-10-08T04:12:00.304Z,1140.480
2022-10-08T04:13:00.298Z,1105.920
2022-10-08T04:14:00.307Z,1088.640
2022-10-08T04:15:00.304Z,1209.600
2022-10-08T04:16:00.365Z,1192.320
2022-10-08T04:17:00.449Z,1180.800
2022-10-08T04:18:00.334Z,1209.600
2022-10-08T04:19:00.336Z,1232.640
2022-10-08T04:20:00.355Z,1301.760
2022-10-08T04:21:00.360Z,1301.760
2022-10-08T04:22:00.578Z,1290.240
2022-10-08T04:23:00.512Z,1497.600
2022-10-08T04:24:00.366Z,1336.320
2022-10-08T04:25:00.282Z,1359.360
2022-10-08T04:26:00.292Z,1388.160
2022-10-08T04:27:00.273Z,1359.360
2022-10-08T04:28:00.482Z,1416.960
2022-10-08T04:29:00.477Z,1342.080
2022-10-08T04:30:00.311Z,1440.000
2022-10-08T04:31:00.370Z,1399.680
2022-10-08T04:32:00.343Z,1497.600
2022-10-08T04:33:00.382Z,1486.080
2022-10-08T04:34:00.277Z,1532.160
2022-10-08T04:35:00.405Z,1555.200
2022-10-08T04:36:00.569Z,1411.200
2022-10-08T04:37:00.264Z,1704.960
2022-10-08T04:38:00.455Z,1635.840
2022-10-08T04:39:00.260Z,1612.800
2022-10-08T04:40:00.295Z,1728.000
2022-10-08T04:41:00.483Z,1728.000
2022-10-08T04:42:00.263Z,1739.520
2022-10-08T04:43:00.269Z,1831.680
2022-10-08T04:44:00.281Z,1889.280
2022-10-08T04:45:00.300Z,2039.040
2022-10-08T04:46:00.352Z,1785.600
2022-10-08T04:47:00.452Z,1728.000
2022-10-08T04:48:00.272Z,1854.720
2022-10-08T04:49:00.306Z,2027.520
2022-10-08T04:50:00.286Z,1946.880
2022-10-08T04:51:00.278Z,1969.920
2022-10-08T04:52:00.307Z,1912.320
2022-10-08T04:53:00.556Z,2050.560
2022-10-08T04:54:00.279Z,2269.440
2022-10-08T04:55:00.301Z,2476.800
2022-10-08T04:56:00.293Z,1958.400
2022-10-08T04:57:00.307Z,2223.360
2022-10-08T04:58:00.279Z,2223.360
2022-10-08T04:59:00.423Z,2246.400
2022-10-08T05:00:17.855Z,2119.680
2022-10-08T05:01:00.301Z,2304.000
2022-10-08T05:02:00.383Z,2465.280
2022-10-08T05:03:00.378Z,3663.360
2022-10-08T05:04:00.287Z,6359.040
2022-10-08T05:05:00.452Z,8939.520
2022-10-08T05:06:00.284Z,9354.240
2022-10-08T05:07:00.293Z,9262.080
2022-10-08T05:08:00.399Z,9907.200
2022-10-08T05:09:00.365Z,8893.440
2022-10-08T05:10:00.395Z,9169.920
2022-10-08T05:11:00.550Z,8985.600
2022-10-08T05:12:00.321Z,9354.240
2022-10-08T05:13:00.352Z,9262.080
2022-10-08T05:14:00.327Z,9169.920
2022-10-08T05:15:00.381Z,9354.240
2022-10-08T05:16:00.324Z,10229.760
2022-10-08T05:17:00.465Z,9354.240
2022-10-08T05:18:00.290Z,9308.160
2022-10-08T05:19:00.292Z,9492.480
2022-10-08T05:20:00.361Z,9400.320
2022-10-08T05:21:00.365Z,9815.040
2022-10-08T05:22:00.282Z,10321.920
2022-10-08T05:23:00.450Z,9953.280
2022-10-08T05:24:00.294Z,10782.720
2022-10-08T05:25:00.300Z,9953.280
2022-10-08T05:26:00.297Z,3824.640
2022-10-08T05:27:00.287Z,10414.080
2022-10-08T05:28:00.415Z,9999.360
2022-10-08T05:29:00.461Z,11335.680
2022-10-08T05:30:00.291Z,7050.240
2022-10-08T05:31:00.377Z,10275.840
2022-10-08T05:32:00.304Z,10045.440
2022-10-08T05:33:00.295Z,10137.600
2022-10-08T05:34:00.301Z,11520.000
2022-10-08T05:35:00.413Z,10690.560
2022-10-08T05:36:00.292Z,9953.280
2022-10-08T05:37:00.305Z,3571.200
2022-10-08T05:38:00.504Z,8939.520
2022-10-08T05:39:00.299Z,10782.720
2022-10-08T05:40:00.321Z,9815.040
2022-10-08T05:41:00.464Z,7603.200
2022-10-08T05:42:00.308Z,5598.720
2022-10-08T05:43:00.297Z,10598.400
2022-10-08T05:44:00.332Z,9999.360
2022-10-08T05:45:00.291Z,10690.560
2022-10-08T05:46:00.563Z,11796.480
2022-10-08T05:47:00.443Z,12349.440
2022-10-08T05:48:00.310Z,11750.400
2022-10-08T05:49:00.304Z,11888.640
2022-10-08T05:50:00.333Z,12441.600
2022-10-08T05:51:00.366Z,11566.080
2022-10-08T05:52:00.323Z,3202.560
2022-10-08T05:53:00.453Z,11796.480
2022-10-08T05:54:00.445Z,3386.880
2022-10-08T05:55:00.298Z,3248.640
2022-10-08T05:56:00.302Z,3041.280
2022-10-08T05:57:00.367Z,10137.600
2022-10-08T05:58:00.287Z,10368.000
2022-10-08T05:59:00.389Z,12810.240
2022-10-08T06:00:00.321Z,3271.680
2022-10-08T06:01:00.289Z,12349.440
2022-10-08T06:02:00.304Z,10368.000
2022-10-08T06:03:00.407Z,7511.040
2022-10-08T06:04:04.371Z,12072.960
2022-10-08T06:05:00.540Z,11289.600
2022-10-08T06:06:00.296Z,12810.240
2022-10-08T06:07:00.297Z,3502.080
2022-10-08T06:08:00.310Z,3271.680
2022-10-08T06:09:00.381Z,11520.000
2022-10-08T06:10:00.363Z,13178.880
2022-10-08T06:11:00.452Z,13363.200
2022-10-08T06:12:00.310Z,11243.520
2022-10-08T06:13:00.300Z,3363.840
2022-10-08T06:14:00.328Z,3847.680
2022-10-08T06:15:00.311Z,13178.880
2022-10-08T06:16:00.338Z,4170.240
2022-10-08T06:17:00.426Z,12349.440
2022-10-08T06:18:00.306Z,3248.640
2022-10-08T06:19:00.290Z,3248.640
2022-10-08T06:20:00.308Z,14192.640
2022-10-08T06:21:00.304Z,13916.160
2022-10-08T06:22:00.312Z,4101.120
2022-10-08T06:23:00.500Z,4608.000
2022-10-08T06:24:00.383Z,9400.320
2022-10-08T06:25:00.328Z,14284.800
2022-10-08T06:26:00.315Z,11888.640
2022-10-08T06:27:00.307Z,3778.560
2022-10-08T06:28:00.375Z,9676.800
2022-10-08T06:29:00.446Z,12257.280
2022-10-08T06:30:00.305Z,14561.280
2022-10-08T06:31:00.364Z,12625.920
2022-10-08T06:32:00.296Z,13824.000
2022-10-08T06:33:00.312Z,3041.280
2022-10-08T06:34:00.317Z,3248.640
2022-10-08T06:35:00.456Z,9123.840
2022-10-08T06:36:00.287Z,3248.640
2022-10-08T06:37:00.290Z,3363.840
2022-10-08T06:38:00.304Z,9676.800
2022-10-08T06:39:00.439Z,15206.400
2022-10-08T06:40:00.307Z,3409.920
2022-10-08T06:41:00.392Z,3479.040
2022-10-08T06:42:00.355Z,3479.040
2022-10-08T06:43:00.357Z,11427.840
2022-10-08T06:44:00.350Z,4700.160
2022-10-08T06:45:02.473Z,15206.400
2022-10-08T06:46:00.292Z,3271.680
2022-10-08T06:47:00.486Z,4400.640
2022-10-08T06:48:00.315Z,4746.240
2022-10-08T06:49:00.289Z,3594.240
2022-10-08T06:50:00.451Z,3386.880
2022-10-08T06:51:00.352Z,4032.000
2022-10-08T06:52:00.307Z,3916.800
2022-10-08T06:53:00.527Z,15390.720
2022-10-08T06:54:05.917Z,3202.560
2022-10-08T06:55:00.290Z,3087.360
2022-10-08T06:56:00.318Z,3847.680
2022-10-08T06:57:00.300Z,3778.560
2022-10-08T06:58:00.311Z,11658.240
2022-10-08T06:59:00.453Z,15390.720
2022-10-08T07:00:00.386Z,3064.320
2022-10-08T07:01:00.369Z,3502.080
2022-10-08T07:02:00.390Z,15759.360
2022-10-08T07:03:00.322Z,3801.600
2022-10-08T07:04:00.282Z,3502.080
2022-10-08T07:05:00.507Z,4469.760
2022-10-08T07:06:00.327Z,3847.680
2022-10-08T07:07:00.304Z,3409.920
2022-10-08T07:08:00.299Z,3179.520
2022-10-08T07:09:00.428Z,5045.760
2022-10-08T07:10:00.389Z,3571.200
2022-10-08T07:11:00.469Z,3386.880
2022-10-08T07:12:00.304Z,3916.800
2022-10-08T07:13:00.322Z,3778.560
2022-10-08T07:14:00.308Z,17141.760
2022-10-08T07:15:00.308Z,3409.920
2022-10-08T07:16:00.365Z,4078.080
2022-10-08T07:17:00.432Z,4147.200
2022-10-08T07:18:00.296Z,13455.360
2022-10-08T07:19:00.309Z,3479.040
2022-10-08T07:20:00.503Z,3640.320
2022-10-08T07:21:00.399Z,3870.720
2022-10-08T07:22:01.422Z,3386.880
2022-10-08T07:23:00.439Z,4124.160
2022-10-08T07:24:00.466Z,3432.960
2022-10-08T07:25:00.343Z,17694.721
2022-10-08T07:26:00.283Z,17418.240
2022-10-08T07:27:00.301Z,9722.880
2022-10-08T07:28:00.421Z,17694.721
2022-10-08T07:29:00.468Z,3709.440
2022-10-08T07:30:00.319Z,3709.440
2022-10-08T07:31:00.288Z,5667.840
2022-10-08T07:32:00.445Z,11612.160
2022-10-08T07:33:00.291Z,4608.000
2022-10-08T07:34:00.324Z,6128.640
2022-10-08T07:35:00.441Z,6036.480
2022-10-08T07:36:00.365Z,8386.560
2022-10-08T07:37:00.410Z,13547.520
2022-10-08T07:38:00.277Z,9169.920
2022-10-08T07:39:00.494Z,16680.961
2022-10-08T07:40:00.297Z,15759.360
2022-10-08T07:41:00.450Z,12718.080
2022-10-08T07:42:00.406Z,15298.560
2022-10-08T07:43:00.404Z,16312.320
2022-10-08T07:44:00.289Z,17049.600
2022-10-08T07:45:00.285Z,3985.920
2022-10-08T07:46:00.397Z,11980.800
2022-10-08T07:47:00.894Z,16773.119
2022-10-08T07:48:00.328Z,16865.279
2022-10-08T07:49:00.297Z,16496.641
2022-10-08T07:50:00.285Z,17510.400
2022-10-08T07:51:00.303Z,15851.520
2022-10-08T07:52:00.317Z,18432.000
2022-10-08T07:53:00.407Z,17141.760
2022-10-08T07:54:02.727Z,17418.240
2022-10-08T07:55:00.292Z,17326.080
2022-10-08T07:56:00.291Z,16865.279
2022-10-08T07:57:00.291Z,12072.960
2022-10-08T07:58:00.307Z,17049.600
2022-10-08T07:59:00.417Z,18432.000
2022-10-08T08:00:00.299Z,3409.920
2022-10-08T08:01:00.360Z,14192.640
2022-10-08T08:02:00.341Z,3686.400
2022-10-08T08:03:00.308Z,18155.520
2022-10-08T08:04:00.311Z,19537.920
2022-10-08T08:05:00.434Z,16312.320
2022-10-08T08:06:00.332Z,18247.680
2022-10-08T08:07:00.306Z,3755.520
2022-10-08T08:08:00.304Z,3709.440
2022-10-08T08:09:00.335Z,3340.800
2022-10-08T08:10:00.275Z,18892.801
2022-10-08T08:11:00.478Z,3571.200
2022-10-08T08:12:00.293Z,17326.080
2022-10-08T08:13:00.279Z,15759.360
2022-10-08T08:14:00.296Z,20275.199
2022-10-08T08:15:00.285Z,5990.400
2022-10-08T08:16:00.358Z,4608.000
2022-10-08T08:17:00.539Z,14284.800
2022-10-08T08:18:00.291Z,3939.840
2022-10-08T08:19:00.295Z,3571.200
2022-10-08T08:20:00.310Z,4331.520
2022-10-08T08:21:00.293Z,3156.480
2022-10-08T08:22:00.393Z,3709.440
2022-10-08T08:23:00.457Z,3663.360
2022-10-08T08:24:00.441Z,3594.240
2022-10-08T08:25:00.374Z,3363.840
2022-10-08T08:26:00.295Z,3686.400
2022-10-08T08:27:00.329Z,3870.720
2022-10-08T08:28:00.392Z,18616.320
2022-10-08T08:29:00.641Z,3456.000
2022-10-08T08:30:00.314Z,3847.680
2022-10-08T08:31:00.309Z,3110.400
2022-10-08T08:32:00.411Z,7971.840
2022-10-08T08:33:00.364Z,3916.800
2022-10-08T08:34:00.447Z,3502.080
2022-10-08T08:35:00.630Z,3778.560
2022-10-08T08:36:00.346Z,3640.320
2022-10-08T08:37:00.308Z,3801.600
2022-10-08T08:38:00.284Z,20459.520
2022-10-08T08:39:00.481Z,3663.360
2022-10-08T08:40:00.290Z,4239.360
2022-10-08T08:41:00.428Z,20183.039
2022-10-08T08:42:00.298Z,3617.280
2022-10-08T08:43:00.305Z,3870.720
2022-10-08T08:44:00.287Z,3317.760
2022-10-08T08:45:00.315Z,3801.600
2022-10-08T08:46:00.436Z,3663.360
2022-10-08T08:47:00.435Z,3617.280
2022-10-08T08:48:00.303Z,4354.560
2022-10-08T08:49:00.308Z,21104.641
2022-10-08T08:50:00.338Z,4331.520
2022-10-08T08:51:00.295Z,3686.400
2022-10-08T08:52:00.313Z,19814.400
2022-10-08T08:53:00.513Z,4677.120
2022-10-08T08:54:00.425Z,3156.480
2022-10-08T08:55:00.303Z,3156.480
2022-10-08T08:56:00.320Z,3939.840
2022-10-08T08:57:00.310Z,3663.360
2022-10-08T08:58:00.305Z,3479.040
2022-10-08T08:59:00.440Z,20367.359
2022-10-08T09:00:00.290Z,3525.120
2022-10-08T09:01:00.364Z,3870.720
2022-10-08T09:02:00.322Z,3340.800
2022-10-08T09:03:00.301Z,3893.760
2022-10-08T09:04:00.347Z,3202.560
2022-10-08T09:05:00.613Z,3456.000
2022-10-08T09:06:00.343Z,3294.720
2022-10-08T09:07:00.298Z,16035.840
2022-10-08T09:08:00.358Z,3456.000
2022-10-08T09:09:00.601Z,3939.840
2022-10-08T09:10:00.311Z,3778.560
2022-10-08T09:11:00.589Z,3893.760
2022-10-08T09:12:00.278Z,3548.160
2022-10-08T09:13:00.452Z,3686.400
2022-10-08T09:14:00.300Z,3732.480
2022-10-08T09:15:00.391Z,4354.560
2022-10-08T09:16:00.346Z,3916.800
2022-10-08T09:17:00.449Z,4999.680
2022-10-08T09:18:00.296Z,3847.680
2022-10-08T09:19:00.347Z,19537.920
2022-10-08T09:20:00.400Z,3571.200
2022-10-08T09:21:00.390Z,4101.120
2022-10-08T09:22:00.390Z,3985.920
2022-10-08T09:23:00.531Z,4124.160
2022-10-08T09:24:00.369Z,3386.880
2022-10-08T09:25:00.288Z,3409.920
2022-10-08T09:26:00.282Z,4124.160
2022-10-08T09:27:00.272Z,3732.480
2022-10-08T09:28:00.353Z,3709.440
2022-10-08T09:29:00.509Z,3778.560
2022-10-08T09:30:00.304Z,3916.800
2022-10-08T09:31:00.392Z,4285.440
2022-10-08T09:32:00.305Z,3525.120
2022-10-08T09:33:00.289Z,18800.641
2022-10-08T09:34:00.316Z,4377.600
2022-10-08T09:35:00.558Z,4884.480
2022-10-08T09:36:00.499Z,20275.199
2022-10-08T09:37:00.379Z,20275.199
2022-10-08T09:38:05.399Z,20090.881
2022-10-08T09:39:00.440Z,19630.080
2022-10-08T09:40:00.273Z,19998.721
2022-10-08T09:41:00.543Z,9123.840
2022-10-08T09:42:00.299Z,19906.561
2022-10-08T09:43:00.366Z,19906.561
2022-10-08T09:44:00.538Z,19814.400
2022-10-08T09:45:00.301Z,20090.881
2022-10-08T09:46:00.406Z,19722.240
2022-10-08T09:47:00.453Z,19906.561
2022-10-08T09:48:00.310Z,19722.240
2022-10-08T09:49:00.358Z,19906.561
2022-10-08T09:50:00.324Z,19722.240
2022-10-08T09:51:00.295Z,19722.240
2022-10-08T09:52:00.349Z,19630.080
2022-10-08T09:53:00.527Z,19261.439
2022-10-08T09:54:00.492Z,16680.961
2022-10-08T09:55:00.501Z,19077.119
2022-10-08T09:56:00.431Z,19630.080
2022-10-08T09:57:00.321Z,19722.240
2022-10-08T09:58:00.397Z,19445.760
2022-10-08T09:59:00.570Z,19445.760
2022-10-08T10:00:00.409Z,19445.760
2022-10-08T10:01:00.399Z,19722.240
2022-10-08T10:02:00.278Z,17049.600
2022-10-08T10:03:00.328Z,18892.801
2022-10-08T10:04:00.436Z,18892.801
2022-10-08T10:05:00.432Z,18984.961
2022-10-08T10:06:00.358Z,18892.801
2022-10-08T10:07:00.293Z,19169.279
2022-10-08T10:08:00.307Z,19077.119
2022-10-08T10:09:00.480Z,13547.520
2022-10-08T10:10:00.364Z,19261.439
2022-10-08T10:11:00.908Z,19261.439
2022-10-08T10:12:00.367Z,19537.920
2022-10-08T10:13:00.382Z,19537.920
2022-10-08T10:14:00.331Z,19537.920
2022-10-08T10:15:00.375Z,11059.200
2022-10-08T10:16:00.335Z,9538.560
2022-10-08T10:17:00.519Z,17326.080
2022-10-08T10:18:00.303Z,11197.440
2022-10-08T10:19:00.306Z,13547.520
2022-10-08T10:20:00.362Z,8432.640
2022-10-08T10:21:00.334Z,6266.880
2022-10-08T10:22:00.474Z,6635.520
2022-10-08T10:23:00.528Z,6266.880
2022-10-08T10:24:00.309Z,6727.680
2022-10-08T10:25:00.391Z,10275.840
2022-10-08T10:26:05.504Z,9400.320
2022-10-08T10:27:00.362Z,14376.960
2022-10-08T10:28:00.391Z,15390.720
2022-10-08T10:29:00.523Z,9400.320
2022-10-08T10:30:00.303Z,8893.440
2022-10-08T10:31:00.368Z,8110.080
2022-10-08T10:32:00.329Z,14008.320
2022-10-08T10:33:00.451Z,14653.440
2022-10-08T10:34:00.278Z,15390.720
2022-10-08T10:35:00.440Z,12165.120
2022-10-08T10:36:00.281Z,13271.040
2022-10-08T10:37:00.321Z,14008.320
2022-10-08T10:38:00.342Z,11612.160
2022-10-08T10:39:00.327Z,7925.760
2022-10-08T10:40:00.339Z,10644.480
2022-10-08T10:41:00.559Z,12349.440
2022-10-08T10:42:00.276Z,5690.880
2022-10-08T10:43:00.315Z,5460.480
2022-10-08T10:44:00.374Z,7050.240
2022-10-08T10:45:00.381Z,8156.160
2022-10-08T10:46:00.338Z,8064.000
2022-10-08T10:47:00.494Z,6220.800
2022-10-08T10:48:00.271Z,8386.560
2022-10-08T10:49:00.295Z,6727.680
2022-10-08T10:50:00.329Z,5990.400
2022-10-08T10:51:00.278Z,6773.760
2022-10-08T10:52:00.365Z,9861.120
2022-10-08T10:53:00.784Z,11381.760
2022-10-08T10:54:00.280Z,11013.120
2022-10-08T10:55:00.289Z,9216.000
2022-10-08T10:56:00.357Z,8202.240
2022-10-08T10:57:00.492Z,8110.080
2022-10-08T10:58:00.291Z,9400.320
2022-10-08T10:59:00.405Z,11197.440
2022-10-08T11:00:00.252Z,12072.960
2022-10-08T11:01:00.256Z,12165.120
2022-10-08T11:02:00.345Z,12533.760
2022-10-08T11:03:00.351Z,12349.440
2022-10-08T11:04:00.271Z,11059.200
2022-10-08T11:05:01.947Z,9308.160
2022-10-08T11:06:00.265Z,11151.360
2022-10-08T11:07:00.324Z,11243.520
2022-10-08T11:08:00.279Z,10137.600
2022-10-08T11:09:00.292Z,10874.880
2022-10-08T11:10:00.327Z,8064.000
2022-10-08T11:11:00.420Z,8202.240
2022-10-08T11:12:00.459Z,9584.640
2022-10-08T11:13:00.439Z,9584.640
2022-10-08T11:14:00.503Z,9169.920
2022-10-08T11:15:00.334Z,8570.880
2022-10-08T11:16:00.397Z,8340.480
2022-10-08T11:17:00.493Z,8110.080
2022-10-08T11:18:00.338Z,7787.520
2022-10-08T11:19:00.343Z,7557.120
2022-10-08T11:20:00.273Z,7142.400
2022-10-08T11:21:00.373Z,6773.760
2022-10-08T11:22:00.252Z,6405.120
2022-10-08T11:23:00.468Z,5990.400
2022-10-08T11:24:00.343Z,5598.720
2022-10-08T11:25:00.339Z,3663.360
2022-10-08T11:26:21.528Z,3179.520
2022-10-08T11:27:00.290Z,3110.400
2022-10-08T11:28:00.424Z,3502.080
2022-10-08T11:29:00.507Z,4032.000
2022-10-08T11:30:00.314Z,4124.160
2022-10-08T11:31:00.319Z,4101.120
2022-10-08T11:32:00.313Z,4008.960
2022-10-08T11:33:00.306Z,3916.800
2022-10-08T11:34:00.295Z,3870.720
2022-10-08T11:35:00.434Z,3847.680
2022-10-08T11:36:00.397Z,3778.560
2022-10-08T11:37:00.307Z,3732.480
2022-10-08T11:38:00.270Z,3686.400
2022-10-08T11:39:00.339Z,3640.320
2022-10-08T11:40:00.333Z,3571.200
2022-10-08T11:41:00.504Z,3502.080
2022-10-08T11:42:00.298Z,3502.080
2022-10-08T11:43:00.522Z,3456.000
2022-10-08T11:44:00.321Z,3409.920
2022-10-08T11:45:00.284Z,3386.880
2022-10-08T11:46:00.358Z,3363.840
2022-10-08T11:47:00.636Z,3340.800
2022-10-08T11:48:00.322Z,3294.720
2022-10-08T11:49:00.300Z,3248.640
2022-10-08T11:50:00.332Z,3202.560
2022-10-08T11:51:00.327Z,3179.520
2022-10-08T11:52:00.320Z,3156.480
2022-10-08T11:53:00.516Z,3110.400
2022-10-08T11:54:00.319Z,3087.360
2022-10-08T11:55:00.287Z,3064.320
2022-10-08T11:56:00.383Z,3018.240
2022-10-08T11:57:00.312Z,2995.200